Time;durP1;ratioP1;P1;durP2;ratioP2;P2;SDS_P1;SDS_P2;PMS_P1;PMS_P2;Temp;Humidity;BMP_temperature;BMP_pressure;BME280_temperature;BME280_humidity;BME280_pressure;Samples;Min_cycle;Max_cycle;Signal;HPM_P1;HPM_P2
2024/03/30 00:01:20;;;;;;;4.05;3.00;;;;;;;;;;5032114;28;20025;-65
2024/03/30 00:03:47;;;;;;;4.97;3.10;;;;;;;;;;5031960;28;20030;-63
2024/03/30 00:06:12;;;;;;;3.80;3.20;;;;;;;;;;5031666;28;20037;-65
2024/03/30 00:08:37;;;;;;;4.97;3.08;;;;;;;;;;5011611;28;20026;-65
2024/03/30 00:11:04;;;;;;;3.85;3.10;;;;;;;;;;5011773;28;20084;-65
2024/03/30 00:13:29;;;;;;;3.50;2.75;;;;;;;;;;5012039;28;20030;-64
2024/03/30 00:15:55;;;;;;;5.47;3.50;;;;;;;;;;5012198;28;20026;-64
2024/03/30 00:18:20;;;;;;;5.32;3.20;;;;;;;;;;5029240;28;20042;-62
2024/03/30 00:20:46;;;;;;;3.17;2.75;;;;;;;;;;5031637;28;20100;-64
2024/03/30 00:23:11;;;;;;;4.28;3.20;;;;;;;;;;5031212;28;20056;-63
2024/03/30 00:25:36;;;;;;;6.97;3.15;;;;;;;;;;5031774;28;20095;-64
2024/03/30 00:28:02;;;;;;;3.38;2.70;;;;;;;;;;5031991;28;20123;-64
2024/03/30 00:30:30;;;;;;;4.30;2.75;;;;;;;;;;5031148;28;20021;-64
2024/03/30 00:32:55;;;;;;;3.40;2.67;;;;;;;;;;5034193;28;20087;-63
2024/03/30 00:35:21;;;;;;;4.60;2.88;;;;;;;;;;5035363;28;20104;-63
2024/03/30 00:37:48;;;;;;;4.10;2.70;;;;;;;;;;5035356;28;20017;-64
2024/03/30 00:40:14;;;;;;;3.17;2.80;;;;;;;;;;5032744;28;20045;-63
2024/03/30 00:42:39;;;;;;;4.20;2.55;;;;;;;;;;5033701;28;20053;-65
2024/03/30 00:45:04;;;;;;;5.13;3.20;;;;;;;;;;5034393;28;20587;-65
2024/03/30 00:47:31;;;;;;;5.03;2.60;;;;;;;;;;5034727;28;20040;-64
2024/03/30 00:49:56;;;;;;;3.38;2.40;;;;;;;;;;5034514;28;20022;-63
2024/03/30 00:52:22;;;;;;;6.15;2.88;;;;;;;;;;5035175;28;20018;-64
2024/03/30 00:54:47;;;;;;;3.55;2.40;;;;;;;;;;5033875;28;20053;-64
2024/03/30 00:57:13;;;;;;;2.72;2.50;;;;;;;;;;5033743;28;20403;-65
2024/03/30 00:59:40;;;;;;;3.15;2.50;;;;;;;;;;5034519;28;20025;-64
2024/03/30 01:02:05;;;;;;;4.60;2.53;;;;;;;;;;5034650;28;20130;-65
2024/03/30 01:04:32;;;;;;;4.25;3.05;;;;;;;;;;5034459;28;20028;-65
2024/03/30 01:06:58;;;;;;;3.53;2.95;;;;;;;;;;5034311;28;20491;-67
2024/03/30 01:09:27;;;;;;;3.50;3.00;;;;;;;;;;5034392;28;20081;-66
2024/03/30 01:11:52;;;;;;;5.80;4.15;;;;;;;;;;5034918;28;20104;-64
2024/03/30 01:14:21;;;;;;;6.07;4.43;;;;;;;;;;5034310;28;20418;-65
2024/03/30 01:16:46;;;;;;;4.95;4.38;;;;;;;;;;5034291;28;20934;-65
2024/03/30 01:19:12;;;;;;;7.25;4.82;;;;;;;;;;5033982;28;20429;-64
2024/03/30 01:21:37;;;;;;;8.13;5.30;;;;;;;;;;5034270;28;20021;-66
2024/03/30 01:24:03;;;;;;;9.48;5.68;;;;;;;;;;5033716;28;20439;-66
2024/03/30 01:26:28;;;;;;;6.88;5.07;;;;;;;;;;5034285;28;20037;-62
2024/03/30 01:28:55;;;;;;;7.70;5.50;;;;;;;;;;5034231;28;20055;-66
2024/03/30 01:31:21;;;;;;;7.60;5.13;;;;;;;;;;5033780;28;20295;-66
2024/03/30 01:33:46;;;;;;;6.75;4.40;;;;;;;;;;5033937;28;20083;-64
2024/03/30 01:36:12;;;;;;;5.80;4.15;;;;;;;;;;5034237;28;20030;-65
2024/03/30 01:38:37;;;;;;;3.63;3.10;;;;;;;;;;5033790;28;20440;-64
2024/03/30 01:41:02;;;;;;;4.30;3.10;;;;;;;;;;5033752;28;20100;-64
2024/03/30 01:43:28;;;;;;;3.95;2.88;;;;;;;;;;5033788;28;20112;-64
2024/03/30 01:45:55;;;;;;;4.28;3.05;;;;;;;;;;5034043;28;20036;-64
2024/03/30 01:48:21;;;;;;;6.43;2.63;;;;;;;;;;5033675;28;20033;-65
2024/03/30 01:50:47;;;;;;;2.85;2.30;;;;;;;;;;5033675;28;20032;-61
2024/03/30 01:53:15;;;;;;;3.15;2.38;;;;;;;;;;5033838;28;20025;-62
2024/03/30 01:55:42;;;;;;;5.22;2.35;;;;;;;;;;5033977;28;20037;-63
2024/03/30 01:58:09;;;;;;;3.80;2.10;;;;;;;;;;5032928;28;20447;-64
2024/03/30 02:00:34;;;;;;;2.70;2.33;;;;;;;;;;5033506;28;20025;-62
2024/03/30 02:03:01;;;;;;;3.80;2.28;;;;;;;;;;5033991;28;20439;-61
2024/03/30 02:05:28;;;;;;;3.63;2.30;;;;;;;;;;5033777;28;20036;-66
2024/03/30 02:07:57;;;;;;;2.40;2.20;;;;;;;;;;5033194;28;20108;-64
2024/03/30 02:10:22;;;;;;;2.63;2.00;;;;;;;;;;5033248;28;20116;-63
2024/03/30 02:12:47;;;;;;;3.83;2.20;;;;;;;;;;5033438;28;20104;-64
2024/03/30 02:15:13;;;;;;;1.88;1.77;;;;;;;;;;5033326;28;20425;-64
2024/03/30 02:17:38;;;;;;;2.63;2.10;;;;;;;;;;5033028;28;20029;-63
2024/03/30 02:20:04;;;;;;;2.30;2.10;;;;;;;;;;5033129;28;20022;-63
2024/03/30 02:22:31;;;;;;;3.33;2.17;;;;;;;;;;5033230;28;20097;-56
2024/03/30 02:24:56;;;;;;;2.47;2.28;;;;;;;;;;5033417;28;20375;-64
2024/03/30 02:27:21;;;;;;;4.00;2.10;;;;;;;;;;5032825;28;20087;-64
2024/03/30 02:29:49;;;;;;;3.08;2.30;;;;;;;;;;5032626;28;20033;-64
2024/03/30 02:32:15;;;;;;;2.40;2.20;;;;;;;;;;5033155;28;20140;-63
2024/03/30 02:34:41;;;;;;;2.10;1.90;;;;;;;;;;5032941;28;20436;-64
2024/03/30 02:37:06;;;;;;;2.60;2.30;;;;;;;;;;5032448;28;20036;-63
2024/03/30 02:39:32;;;;;;;2.53;2.20;;;;;;;;;;5032862;28;20021;-60
2024/03/30 02:41:57;;;;;;;4.32;2.38;;;;;;;;;;5033163;28;20024;-64
2024/03/30 02:44:23;;;;;;;2.55;1.98;;;;;;;;;;5032794;28;20044;-65
2024/03/30 02:46:48;;;;;;;2.63;2.30;;;;;;;;;;5032387;28;20491;-63
2024/03/30 02:49:14;;;;;;;3.90;2.40;;;;;;;;;;5032672;28;20414;-63
2024/03/30 02:51:39;;;;;;;2.88;2.10;;;;;;;;;;5032133;28;20087;-65
2024/03/30 02:54:05;;;;;;;2.80;2.28;;;;;;;;;;5031797;28;20148;-64
2024/03/30 02:56:32;;;;;;;4.10;2.00;;;;;;;;;;5032469;28;20025;-64
2024/03/30 02:58:57;;;;;;;3.60;2.40;;;;;;;;;;5031368;28;20051;-64
2024/03/30 03:01:23;;;;;;;2.58;2.28;;;;;;;;;;5032575;28;20022;-65
2024/03/30 03:03:48;;;;;;;2.70;2.35;;;;;;;;;;5032343;28;20049;-65
2024/03/30 03:06:13;;;;;;;4.43;2.33;;;;;;;;;;5032248;28;20453;-64
2024/03/30 03:08:39;;;;;;;4.10;2.38;;;;;;;;;;5032423;28;20104;-63
2024/03/30 03:11:04;;;;;;;5.63;2.80;;;;;;;;;;5031983;28;20048;-62
2024/03/30 03:13:29;;;;;;;2.40;2.20;;;;;;;;;;5032566;28;20021;-63
2024/03/30 03:15:55;;;;;;;3.17;2.63;;;;;;;;;;5032495;28;20049;-63
2024/03/30 03:18:21;;;;;;;3.83;2.80;;;;;;;;;;5031709;28;20041;-64
2024/03/30 03:20:46;;;;;;;3.83;2.60;;;;;;;;;;5032257;28;20033;-64
2024/03/30 03:23:11;;;;;;;3.10;2.80;;;;;;;;;;5032598;28;20120;-65
2024/03/30 03:25:37;;;;;;;4.47;2.95;;;;;;;;;;5032094;28;20059;-64
2024/03/30 03:28:02;;;;;;;4.13;2.72;;;;;;;;;;5032387;28;20029;-65
2024/03/30 03:30:30;;;;;;;4.45;2.42;;;;;;;;;;5032325;28;20018;-65
2024/03/30 03:32:55;;;;;;;3.03;2.53;;;;;;;;;;5031986;28;20104;-64
2024/03/30 03:35:21;;;;;;;3.28;2.10;;;;;;;;;;5031777;28;20112;-64
2024/03/30 03:37:46;;;;;;;2.88;2.25;;;;;;;;;;5032116;28;20064;-63
2024/03/30 03:40:12;;;;;;;2.53;2.20;;;;;;;;;;5032226;28;20017;-64
2024/03/30 03:42:37;;;;;;;2.40;2.20;;;;;;;;;;5031973;28;20083;-65
2024/03/30 03:45:02;;;;;;;2.40;2.20;;;;;;;;;;5032108;28;20092;-64
2024/03/30 03:47:30;;;;;;;3.38;2.10;;;;;;;;;;5032206;28;20041;-64
2024/03/30 03:49:55;;;;;;;2.72;2.25;;;;;;;;;;5032331;28;20032;-65
2024/03/30 03:52:21;;;;;;;2.33;2.13;;;;;;;;;;5031727;28;20124;-65
2024/03/30 03:54:46;;;;;;;2.50;2.30;;;;;;;;;;5031690;28;20050;-64
2024/03/30 03:57:12;;;;;;;3.33;2.47;;;;;;;;;;5031823;28;20033;-63
2024/03/30 03:59:37;;;;;;;4.32;2.78;;;;;;;;;;5032068;28;20032;-61
2024/03/30 04:02:02;;;;;;;4.18;3.30;;;;;;;;;;5031988;28;20022;-63
2024/03/30 04:04:28;;;;;;;3.85;3.55;;;;;;;;;;5031699;28;20021;-62
2024/03/30 04:06:53;;;;;;;5.47;4.20;;;;;;;;;;5034519;28;20033;-63
2024/03/30 04:09:19;;;;;;;5.00;4.50;;;;;;;;;;5034900;28;20053;-62
2024/03/30 04:11:44;;;;;;;6.10;5.47;;;;;;;;;;5034673;28;20452;-64
2024/03/30 04:14:09;;;;;;;5.50;5.10;;;;;;;;;;5034621;28;20029;-68
2024/03/30 04:16:35;;;;;;;6.13;5.68;;;;;;;;;;5035210;28;20037;-64
2024/03/30 04:19:00;;;;;;;2.35;2.15;;;;;;;;;;5035211;28;20013;-64
2024/03/30 04:21:27;;;;;;;2.40;2.15;;;;;;;;;;5035310;28;20025;-59
2024/03/30 04:23:53;;;;;;;4.28;2.88;;;;;;;;;;5035219;28;20451;-67
2024/03/30 04:26:18;;;;;;;3.55;3.25;;;;;;;;;;5035427;28;20014;-68
2024/03/30 04:28:44;;;;;;;3.30;1.90;;;;;;;;;;5035598;28;20352;-67
2024/03/30 04:31:10;;;;;;;3.38;1.88;;;;;;;;;;5035247;28;20018;-67
2024/03/30 04:33:35;;;;;;;3.95;2.70;;;;;;;;;;5035295;28;20032;-67
2024/03/30 04:36:02;;;;;;;4.28;2.17;;;;;;;;;;5025449;28;20101;-68
2024/03/30 04:38:28;;;;;;;2.10;1.73;;;;;;;;;;5015718;28;20126;-68
2024/03/30 04:40:57;;;;;;;5.50;5.13;;;;;;;;;;5015157;28;20025;-67
2024/03/30 04:43:22;;;;;;;15.23;13.98;;;;;;;;;;5015187;28;20176;-67
2024/03/30 04:45:47;;;;;;;3.38;1.80;;;;;;;;;;5014062;28;20120;-66
2024/03/30 04:48:13;;;;;;;2.47;1.50;;;;;;;;;;5030830;28;20097;-64
2024/03/30 04:50:38;;;;;;;3.22;1.55;;;;;;;;;;5034117;28;20356;-67
2024/03/30 04:53:04;;;;;;;2.40;1.67;;;;;;;;;;5034504;28;20021;-68
2024/03/30 04:55:29;;;;;;;11.10;10.45;;;;;;;;;;5034504;28;20049;-69
2024/03/30 04:57:54;;;;;;;10.40;9.60;;;;;;;;;;5033783;28;20045;-70
2024/03/30 05:00:20;;;;;;;8.15;7.65;;;;;;;;;;5032575;28;20510;-69
2024/03/30 05:02:45;;;;;;;6.40;5.80;;;;;;;;;;5034494;28;20025;-67
2024/03/30 05:05:10;;;;;;;3.05;2.65;;;;;;;;;;5034144;28;20053;-66
2024/03/30 05:07:36;;;;;;;2.20;1.58;;;;;;;;;;5034412;28;20068;-68
2024/03/30 05:10:01;;;;;;;2.08;1.60;;;;;;;;;;5034017;28;20033;-66
2024/03/30 05:12:27;;;;;;;2.65;2.40;;;;;;;;;;5034011;28;20032;-68
2024/03/30 05:14:53;;;;;;;2.42;1.50;;;;;;;;;;5033894;28;20030;-68
2024/03/30 05:17:18;;;;;;;2.63;1.60;;;;;;;;;;5033327;28;20030;-67
2024/03/30 05:22:28;;;;;;;2.87;1.40;;;;;;;;;;5033535;28;20064;-65
2024/03/30 05:24:54;;;;;;;2.33;1.55;;;;;;;;;;5033370;28;20282;-65
2024/03/30 05:27:19;;;;;;;1.98;1.55;;;;;;;;;;5033922;28;20034;-65
2024/03/30 05:29:45;;;;;;;3.78;1.77;;;;;;;;;;5033590;28;20187;-67
2024/03/30 05:32:10;;;;;;;2.72;1.48;;;;;;;;;;5033574;28;20083;-67
2024/03/30 05:34:35;;;;;;;2.50;1.40;;;;;;;;;;5034287;28;20021;-66
2024/03/30 05:37:03;;;;;;;3.97;1.60;;;;;;;;;;5034147;28;20028;-67
2024/03/30 05:39:29;;;;;;;5.32;1.67;;;;;;;;;;5033804;28;20017;-68
2024/03/30 05:41:54;;;;;;;4.15;1.27;;;;;;;;;;5033685;28;20823;-67
2024/03/30 05:44:20;;;;;;;8.82;2.10;;;;;;;;;;5034195;28;20024;-59
2024/03/30 05:46:45;;;;;;;4.63;1.55;;;;;;;;;;5033930;28;20678;-63
2024/03/30 05:49:10;;;;;;;3.73;1.40;;;;;;;;;;5019707;28;20022;-63
2024/03/30 05:51:36;;;;;;;2.37;1.73;;;;;;;;;;5030969;28;20345;-61
2024/03/30 05:54:01;;;;;;;3.53;1.47;;;;;;;;;;5033838;28;20326;-68
2024/03/30 05:56:27;;;;;;;3.35;1.48;;;;;;;;;;5033424;28;20281;-67
2024/03/30 05:58:53;;;;;;;7.43;1.40;;;;;;;;;;5033087;28;20036;-63
2024/03/30 06:01:19;;;;;;;3.47;1.33;;;;;;;;;;5033534;28;20040;-67
2024/03/30 06:03:45;;;;;;;5.40;1.83;;;;;;;;;;5033429;28;20027;-70
2024/03/30 06:06:10;;;;;;;4.00;1.50;;;;;;;;;;5033539;28;20025;-63
2024/03/30 06:08:35;;;;;;;2.07;1.43;;;;;;;;;;5033092;28;20022;-58
2024/03/30 06:11:01;;;;;;;2.30;1.43;;;;;;;;;;5032765;28;20258;-64
2024/03/30 06:13:26;;;;;;;3.73;1.70;;;;;;;;;;5033287;28;20349;-62
2024/03/30 06:15:59;;;;;;;4.37;1.97;;;;;;;;;;5032494;28;20270;-64
2024/03/30 06:18:25;;;;;;;3.65;1.98;;;;;;;;;;5032796;28;20341;-64
2024/03/30 06:20:52;;;;;;;6.45;1.85;;;;;;;;;;5032051;28;20072;-64
2024/03/30 06:23:17;;;;;;;4.50;1.73;;;;;;;;;;5033117;28;20100;-64
2024/03/30 06:25:43;;;;;;;3.30;1.50;;;;;;;;;;5032155;28;20173;-63
2024/03/30 06:28:08;;;;;;;2.60;1.27;;;;;;;;;;5031643;28;20736;-63
2024/03/30 06:30:35;;;;;;;6.00;1.80;;;;;;;;;;5032593;28;20316;-63
2024/03/30 06:33:00;;;;;;;4.57;1.40;;;;;;;;;;5032904;28;20285;-61
2024/03/30 06:35:26;;;;;;;4.17;1.57;;;;;;;;;;5032902;28;20021;-62
2024/03/30 06:37:52;;;;;;;9.68;1.80;;;;;;;;;;5032309;28;20096;-64
2024/03/30 06:45:45;;;;;;;3.92;1.58;;;;;;;;;;5032316;28;20335;-63
2024/03/30 06:48:10;;;;;;;2.55;1.67;;;;;;;;;;5032303;28;20113;-65
2024/03/30 06:50:35;;;;;;;3.80;1.63;;;;;;;;;;5032215;28;20025;-65
2024/03/30 06:53:01;;;;;;;4.57;1.47;;;;;;;;;;5032261;28;20657;-65
2024/03/30 06:55:26;;;;;;;3.47;1.70;;;;;;;;;;5032253;28;20045;-62
2024/03/30 06:57:51;;;;;;;3.72;1.58;;;;;;;;;;5032470;28;20052;-63
2024/03/30 07:00:19;;;;;;;3.15;1.70;;;;;;;;;;5032314;28;20056;-64
2024/03/30 07:02:45;;;;;;;4.82;1.95;;;;;;;;;;5031370;28;20021;-63
2024/03/30 07:05:10;;;;;;;3.67;1.50;;;;;;;;;;5032498;28;20041;-62
2024/03/30 07:07:36;;;;;;;5.70;1.88;;;;;;;;;;5032018;28;20079;-69
2024/03/30 07:10:01;;;;;;;6.00;1.53;;;;;;;;;;5030605;28;20026;-71
2024/03/30 07:12:29;;;;;;;6.15;1.50;;;;;;;;;;5032183;28;20021;-69
2024/03/30 07:14:54;;;;;;;3.17;1.40;;;;;;;;;;5032085;28;20614;-68
2024/03/30 07:17:19;;;;;;;4.13;1.60;;;;;;;;;;5031585;28;20065;-69
2024/03/30 07:19:45;;;;;;;3.70;1.50;;;;;;;;;;5032251;28;20052;-73
2024/03/30 07:22:10;;;;;;;3.80;1.50;;;;;;;;;;5032332;28;20278;-71
2024/03/30 07:24:35;;;;;;;4.60;1.40;;;;;;;;;;5031927;28;20341;-71
2024/03/30 07:27:01;;;;;;;1.90;1.47;;;;;;;;;;5031034;28;20463;-71
2024/03/30 07:29:26;;;;;;;1.53;1.30;;;;;;;;;;5032293;28;20292;-69
2024/03/30 07:31:55;;;;;;;1.95;1.58;;;;;;;;;;5032245;28;20067;-69
2024/03/30 07:34:21;;;;;;;2.70;1.70;;;;;;;;;;5032096;28;20029;-69
2024/03/30 07:36:46;;;;;;;2.50;1.70;;;;;;;;;;5032013;28;20038;-72
2024/03/30 07:39:11;;;;;;;6.20;1.80;;;;;;;;;;5032660;28;20340;-70
2024/03/30 07:41:37;;;;;;;6.47;1.63;;;;;;;;;;5034250;28;20261;-68
2024/03/30 07:44:02;;;;;;;2.80;1.37;;;;;;;;;;5036135;28;20420;-71
2024/03/30 07:46:27;;;;;;;3.10;1.63;;;;;;;;;;5036197;28;20333;-70
2024/03/30 07:48:53;;;;;;;4.97;1.63;;;;;;;;;;5035851;28;20383;-70
2024/03/30 07:51:18;;;;;;;6.60;1.30;;;;;;;;;;5034788;28;20014;-70
2024/03/30 07:53:43;;;;;;;2.97;1.37;;;;;;;;;;5035322;28;20046;-70
2024/03/30 07:56:09;;;;;;;3.17;1.10;;;;;;;;;;5035813;28;20789;-70
2024/03/30 07:58:34;;;;;;;1.60;1.40;;;;;;;;;;5035827;28;20506;-68
2024/03/30 08:01:00;;;;;;;2.17;1.50;;;;;;;;;;5035532;28;20021;-69
2024/03/30 08:03:25;;;;;;;5.47;1.40;;;;;;;;;;5035263;28;20297;-69
2024/03/30 08:05:54;;;;;;;3.87;1.60;;;;;;;;;;5035332;28;20262;-67
2024/03/30 08:08:20;;;;;;;11.73;1.70;;;;;;;;;;5035938;28;20254;-68
2024/03/30 08:10:45;;;;;;;1.77;1.30;;;;;;;;;;5035692;28;20468;-70
2024/03/30 08:13:10;;;;;;;4.85;1.58;;;;;;;;;;5035093;28;20269;-70
2024/03/30 08:15:39;;;;;;;9.50;1.57;;;;;;;;;;5034564;28;20034;-70
2024/03/30 08:18:05;;;;;;;1.60;1.10;;;;;;;;;;5035039;28;20294;-68
2024/03/30 08:20:31;;;;;;;7.57;1.30;;;;;;;;;;5035458;28;20456;-70
2024/03/30 08:22:56;;;;;;;7.70;2.85;;;;;;;;;;5035091;28;20040;-70
2024/03/30 08:25:21;;;;;;;3.78;1.40;;;;;;;;;;5033732;28;20109;-68
2024/03/30 08:27:47;;;;;;;4.72;1.33;;;;;;;;;;5034454;28;20026;-69
2024/03/30 08:30:12;;;;;;;4.22;1.17;;;;;;;;;;5035001;28;20437;-71
2024/03/30 08:32:37;;;;;;;4.60;1.10;;;;;;;;;;5034848;28;20127;-70
2024/03/30 08:35:03;;;;;;;5.57;1.30;;;;;;;;;;5034929;28;20033;-70
2024/03/30 08:37:29;;;;;;;6.28;1.30;;;;;;;;;;5035205;28;20037;-70
2024/03/30 08:39:55;;;;;;;5.50;1.48;;;;;;;;;;5035070;28;20036;-70
2024/03/30 08:42:20;;;;;;;6.53;1.52;;;;;;;;;;5035062;28;20436;-71
2024/03/30 08:44:45;;;;;;;4.32;1.35;;;;;;;;;;5034515;28;20108;-70
2024/03/30 08:47:11;;;;;;;1.85;1.30;;;;;;;;;;5033677;28;20021;-70
2024/03/30 08:49:36;;;;;;;3.58;1.30;;;;;;;;;;5034887;28;20030;-70
2024/03/30 08:52:04;;;;;;;3.85;1.08;;;;;;;;;;5033208;28;20021;-71
2024/03/30 08:54:30;;;;;;;3.70;1.42;;;;;;;;;;5016931;28;20049;-70
2024/03/30 08:56:56;;;;;;;5.07;1.38;;;;;;;;;;5034490;28;20041;-71
2024/03/30 08:59:21;;;;;;;3.78;1.42;;;;;;;;;;5034645;28;20337;-70
2024/03/30 09:01:47;;;;;;;7.65;1.50;;;;;;;;;;5034656;28;20037;-70
2024/03/30 09:04:13;;;;;;;2.25;1.05;;;;;;;;;;5035184;28;20882;-71
2024/03/30 09:06:38;;;;;;;8.27;1.35;;;;;;;;;;5033836;28;20040;-71
2024/03/30 09:09:04;;;;;;;5.82;1.23;;;;;;;;;;5034752;28;20045;-70
2024/03/30 09:11:29;;;;;;;5.20;1.25;;;;;;;;;;5033950;28;20024;-70
2024/03/30 09:13:55;;;;;;;2.67;1.20;;;;;;;;;;5034015;28;20484;-68
2024/03/30 09:16:20;;;;;;;5.35;1.52;;;;;;;;;;5033957;28;20022;-69
2024/03/30 09:18:46;;;;;;;3.83;1.45;;;;;;;;;;5033660;28;20428;-70
2024/03/30 09:21:11;;;;;;;2.15;1.25;;;;;;;;;;5033967;28;20092;-71
2024/03/30 09:23:37;;;;;;;3.83;1.33;;;;;;;;;;5034092;28;20156;-70
2024/03/30 09:26:02;;;;;;;3.50;1.38;;;;;;;;;;5034432;28;20033;-70
2024/03/30 09:28:28;;;;;;;6.18;1.33;;;;;;;;;;5033075;28;20049;-70
2024/03/30 09:30:53;;;;;;;3.50;1.80;;;;;;;;;;5034327;28;20028;-70
2024/03/30 09:33:19;;;;;;;3.38;1.30;;;;;;;;;;5034032;28;20083;-71
2024/03/30 09:35:44;;;;;;;4.47;1.30;;;;;;;;;;5034173;28;20100;-71
2024/03/30 09:38:09;;;;;;;8.43;1.50;;;;;;;;;;5033549;28;20037;-70
2024/03/30 09:40:35;;;;;;;6.20;1.10;;;;;;;;;;5033492;28;20029;-71
2024/03/30 09:43:01;;;;;;;4.07;1.20;;;;;;;;;;5034252;28;20032;-70
2024/03/30 09:45:26;;;;;;;5.03;1.25;;;;;;;;;;5033792;28;20180;-66
2024/03/30 09:47:52;;;;;;;7.53;1.30;;;;;;;;;;5033716;28;20017;-70
2024/03/30 09:50:18;;;;;;;4.50;1.58;;;;;;;;;;5033081;28;20381;-69
2024/03/30 09:52:44;;;;;;;9.10;1.27;;;;;;;;;;5034086;28;20119;-71
2024/03/30 09:55:14;;;;;;;5.30;1.05;;;;;;;;;;5033500;28;20073;-69
2024/03/30 09:57:41;;;;;;;3.28;1.17;;;;;;;;;;5033314;28;20041;-70
2024/03/30 10:00:11;;;;;;;2.38;1.30;;;;;;;;;;5033209;28;20113;-70
2024/03/30 10:02:36;;;;;;;5.72;1.20;;;;;;;;;;5033739;28;20055;-71
2024/03/30 10:05:01;;;;;;;4.88;1.20;;;;;;;;;;5033113;28;20022;-71
2024/03/30 10:07:30;;;;;;;8.20;1.50;;;;;;;;;;5033183;28;20024;-65
2024/03/30 10:09:59;;;;;;;4.00;1.10;;;;;;;;;;5032940;28;20048;-71
2024/03/30 10:12:31;;;;;;;3.83;0.95;;;;;;;;;;5033735;28;20360;-69
2024/03/30 10:14:59;;;;;;;7.68;1.30;;;;;;;;;;5033612;28;20036;-70
2024/03/30 10:17:24;;;;;;;6.45;1.20;;;;;;;;;;5032717;28;20037;-71
2024/03/30 10:19:51;;;;;;;5.88;1.08;;;;;;;;;;5031495;28;20017;-71
2024/03/30 10:22:17;;;;;;;3.15;1.10;;;;;;;;;;5033046;28;20100;-70
2024/03/30 10:24:42;;;;;;;1.67;1.10;;;;;;;;;;5033108;28;20028;-69
2024/03/30 10:27:08;;;;;;;9.52;1.65;;;;;;;;;;5032963;28;20087;-71
2024/03/30 10:29:34;;;;;;;4.57;1.20;;;;;;;;;;5032662;28;20087;-70
2024/03/30 10:32:04;;;;;;;5.57;1.48;;;;;;;;;;5032262;28;20100;-68
2024/03/30 10:34:29;;;;;;;6.50;1.35;;;;;;;;;;5031389;28;20356;-70
2024/03/30 10:36:58;;;;;;;3.42;1.40;;;;;;;;;;5032633;28;20038;-69
2024/03/30 10:39:26;;;;;;;4.43;1.10;;;;;;;;;;5031527;28;20025;-71
2024/03/30 10:41:52;;;;;;;2.03;1.10;;;;;;;;;;5032473;28;20029;-69
2024/03/30 10:44:24;;;;;;;6.75;1.08;;;;;;;;;;5032241;28;20080;-70
2024/03/30 10:46:49;;;;;;;4.35;1.23;;;;;;;;;;5032406;28;20033;-68
2024/03/30 10:49:14;;;;;;;2.83;0.75;;;;;;;;;;5032026;28;20022;-70
2024/03/30 10:51:40;;;;;;;3.05;1.23;;;;;;;;;;5031252;28;20033;-70
2024/03/30 10:54:06;;;;;;;5.28;0.90;;;;;;;;;;5031949;28;20227;-70
2024/03/30 10:56:31;;;;;;;5.55;1.58;;;;;;;;;;5031628;28;20120;-69
2024/03/30 10:58:58;;;;;;;4.20;0.90;;;;;;;;;;5032435;28;20017;-72
2024/03/30 11:01:23;;;;;;;6.70;1.58;;;;;;;;;;5032065;28;20025;-71
2024/03/30 11:03:49;;;;;;;5.32;1.20;;;;;;;;;;5032564;28;20017;-71
2024/03/30 11:06:15;;;;;;;5.40;0.90;;;;;;;;;;5032495;28;20025;-71
2024/03/30 11:08:41;;;;;;;3.60;1.20;;;;;;;;;;5032008;28;20117;-70
2024/03/30 11:11:06;;;;;;;3.75;0.95;;;;;;;;;;5032238;28;20029;-71
2024/03/30 11:13:32;;;;;;;6.72;1.08;;;;;;;;;;5031905;28;20121;-70
2024/03/30 11:16:00;;;;;;;3.38;1.00;;;;;;;;;;5031783;28;20035;-71
2024/03/30 11:18:35;;;;;;;4.60;1.23;;;;;;;;;;5031892;28;20049;-71
2024/03/30 11:21:03;;;;;;;6.22;1.10;;;;;;;;;;5031468;28;20025;-71
2024/03/30 11:23:48;;;;;;;4.38;1.13;;;;;;;;;;5031166;28;20436;-71
2024/03/30 11:26:14;;;;;;;6.65;1.23;;;;;;;;;;5031703;28;20026;-70
2024/03/30 11:28:45;;;;;;;3.63;1.13;;;;;;;;;;5031711;28;20030;-70
2024/03/30 11:31:21;;;;;;;7.57;1.67;;;;;;;;;;5031752;28;20043;-70
2024/03/30 11:33:47;;;;;;;4.47;1.30;;;;;;;;;;5031591;28;20044;-69
2024/03/30 11:36:17;;;;;;;4.88;1.67;;;;;;;;;;5031761;28;20029;-69
2024/03/30 11:38:46;;;;;;;3.85;0.95;;;;;;;;;;5031585;28;20449;-68
2024/03/30 11:41:13;;;;;;;4.72;1.00;;;;;;;;;;5031822;28;20076;-68
2024/03/30 11:43:38;;;;;;;5.88;1.15;;;;;;;;;;5030242;28;20448;-68
2024/03/30 11:46:04;;;;;;;11.48;1.50;;;;;;;;;;5030749;28;20021;-69
2024/03/30 11:48:30;;;;;;;7.32;1.10;;;;;;;;;;5032037;28;20017;-68
2024/03/30 11:50:56;;;;;;;3.00;1.10;;;;;;;;;;5030693;28;20029;-68
2024/03/30 11:53:21;;;;;;;9.52;1.25;;;;;;;;;;5030135;28;20030;-70
2024/03/30 11:55:50;;;;;;;3.75;0.82;;;;;;;;;;5031811;28;20351;-69
2024/03/30 11:58:23;;;;;;;6.55;1.58;;;;;;;;;;5031078;28;20113;-69
2024/03/30 12:00:58;;;;;;;7.20;1.40;;;;;;;;;;5032158;28;20083;-69
2024/03/30 12:03:24;;;;;;;3.42;1.27;;;;;;;;;;5031319;28;20305;-69
2024/03/30 12:05:54;;;;;;;10.95;1.38;;;;;;;;;;5031330;28;20045;-70
2024/03/30 12:08:23;;;;;;;7.97;1.48;;;;;;;;;;5031800;28;20037;-70
2024/03/30 12:10:58;;;;;;;5.03;1.13;;;;;;;;;;5011163;28;20457;-70
2024/03/30 12:13:27;;;;;;;6.60;1.30;;;;;;;;;;5019939;28;20103;-69
2024/03/30 12:15:54;;;;;;;2.25;0.73;;;;;;;;;;5031234;28;20030;-69
2024/03/30 12:18:20;;;;;;;3.78;0.90;;;;;;;;;;5030711;28;20087;-69
2024/03/30 12:20:49;;;;;;;14.15;1.38;;;;;;;;;;5031739;28;20033;-68
2024/03/30 12:23:15;;;;;;;2.72;1.17;;;;;;;;;;5031357;28;20340;-65
2024/03/30 12:25:42;;;;;;;5.35;1.27;;;;;;;;;;5029872;28;20033;-68
2024/03/30 12:28:07;;;;;;;7.13;1.30;;;;;;;;;;5034510;28;20478;-67
2024/03/30 12:30:40;;;;;;;2.85;0.90;;;;;;;;;;5033829;28;20112;-65
2024/03/30 12:33:05;;;;;;;6.75;1.00;;;;;;;;;;5033937;28;20364;-66
2024/03/30 12:35:31;;;;;;;10.02;1.30;;;;;;;;;;5034979;28;20063;-67
2024/03/30 12:37:57;;;;;;;5.45;2.28;;;;;;;;;;5034930;28;20120;-68
2024/03/30 12:40:22;;;;;;;9.75;2.17;;;;;;;;;;5034653;28;20029;-68
2024/03/30 12:42:49;;;;;;;8.73;1.20;;;;;;;;;;5033690;28;20078;-68
2024/03/30 12:45:14;;;;;;;11.50;1.95;;;;;;;;;;5034936;28;20473;-67
2024/03/30 12:47:40;;;;;;;5.32;1.25;;;;;;;;;;5034895;28;20033;-68
2024/03/30 12:50:05;;;;;;;7.03;1.63;;;;;;;;;;5033768;28;20025;-67
2024/03/30 12:52:30;;;;;;;4.85;1.23;;;;;;;;;;5034727;28;20025;-67
2024/03/30 12:54:56;;;;;;;4.40;1.95;;;;;;;;;;5034566;28;20037;-67
2024/03/30 12:57:24;;;;;;;8.73;1.30;;;;;;;;;;5034330;28;20044;-68
2024/03/30 12:59:56;;;;;;;7.40;1.55;;;;;;;;;;5033787;28;20022;-68
2024/03/30 13:02:21;;;;;;;4.20;1.40;;;;;;;;;;5034089;28;20029;-68
2024/03/30 13:04:46;;;;;;;3.60;1.42;;;;;;;;;;5034582;28;20021;-66
2024/03/30 13:07:12;;;;;;;4.30;1.33;;;;;;;;;;5034721;28;20029;-67
2024/03/30 13:09:38;;;;;;;3.92;1.15;;;;;;;;;;5034631;28;20088;-64
2024/03/30 13:12:04;;;;;;;5.65;1.42;;;;;;;;;;5034630;28;20443;-68
2024/03/30 13:14:34;;;;;;;2.60;1.35;;;;;;;;;;5034156;28;20029;-68
2024/03/30 13:17:04;;;;;;;5.35;1.23;;;;;;;;;;5033991;28;20037;-68
2024/03/30 13:19:30;;;;;;;8.02;1.50;;;;;;;;;;5033955;28;20033;-67
2024/03/30 13:21:56;;;;;;;2.92;1.02;;;;;;;;;;5034317;28;20072;-68
2024/03/30 13:24:21;;;;;;;5.65;1.20;;;;;;;;;;5034242;28;20045;-68
2024/03/30 13:26:46;;;;;;;5.65;1.23;;;;;;;;;;5034134;28;20090;-68
2024/03/30 13:29:12;;;;;;;7.82;1.33;;;;;;;;;;5033850;28;20410;-68
2024/03/30 13:31:37;;;;;;;5.32;1.30;;;;;;;;;;5034089;28;20093;-67
2024/03/30 13:34:02;;;;;;;8.75;1.40;;;;;;;;;;5034176;28;20026;-67
2024/03/30 13:36:28;;;;;;;7.07;1.50;;;;;;;;;;5034078;28;20022;-68
2024/03/30 13:38:53;;;;;;;4.55;1.25;;;;;;;;;;5032928;28;20407;-68
2024/03/30 13:41:21;;;;;;;6.63;1.60;;;;;;;;;;5032372;28;20026;-68
2024/03/30 13:43:46;;;;;;;6.32;1.30;;;;;;;;;;5033503;28;20030;-68
2024/03/30 13:46:11;;;;;;;5.65;1.25;;;;;;;;;;5033413;28;20021;-67
2024/03/30 13:48:37;;;;;;;4.10;1.17;;;;;;;;;;5033521;28;20032;-65
2024/03/30 13:51:02;;;;;;;7.63;1.70;;;;;;;;;;5033288;28;20021;-65
2024/03/30 13:53:28;;;;;;;7.43;1.30;;;;;;;;;;5032251;28;20037;-65
2024/03/30 13:55:53;;;;;;;8.93;1.60;;;;;;;;;;5033661;28;20116;-69
2024/03/30 13:58:25;;;;;;;7.20;1.55;;;;;;;;;;5033133;28;20036;-67
2024/03/30 14:00:51;;;;;;;7.03;1.95;;;;;;;;;;5033088;28;20028;-66
2024/03/30 14:03:17;;;;;;;6.35;1.75;;;;;;;;;;5033181;28;20021;-66
2024/03/30 14:05:42;;;;;;;13.05;1.58;;;;;;;;;;5033016;28;20022;-71
2024/03/30 14:08:08;;;;;;;6.85;1.83;;;;;;;;;;5033307;28;20025;-71
2024/03/30 14:10:33;;;;;;;9.25;1.70;;;;;;;;;;5022079;28;20022;-67
2024/03/30 14:12:58;;;;;;;14.75;1.70;;;;;;;;;;5032934;28;20029;-66
2024/03/30 14:15:24;;;;;;;7.82;1.60;;;;;;;;;;5033153;28;20088;-66
2024/03/30 14:17:49;;;;;;;6.72;1.98;;;;;;;;;;5031575;28;20033;-68
2024/03/30 14:20:16;;;;;;;7.15;2.78;;;;;;;;;;5023949;28;20020;-66
2024/03/30 14:22:42;;;;;;;7.45;2.00;;;;;;;;;;5021115;28;20441;-68
2024/03/30 14:25:08;;;;;;;7.05;1.67;;;;;;;;;;5022193;28;20036;-66
2024/03/30 14:27:33;;;;;;;6.97;1.80;;;;;;;;;;5023497;28;20017;-65
2024/03/30 14:29:58;;;;;;;4.47;1.67;;;;;;;;;;5021832;28;20022;-64
2024/03/30 14:32:25;;;;;;;6.85;1.40;;;;;;;;;;5022169;28;20045;-65
2024/03/30 14:34:51;;;;;;;7.72;1.60;;;;;;;;;;5029129;28;20021;-66
2024/03/30 14:37:17;;;;;;;3.95;1.48;;;;;;;;;;5032527;28;20048;-65
2024/03/30 14:39:42;;;;;;;12.93;3.25;;;;;;;;;;5032080;28;20041;-67
2024/03/30 14:42:08;;;;;;;8.45;1.67;;;;;;;;;;5032605;28;20100;-69
2024/03/30 14:44:33;;;;;;;11.88;1.77;;;;;;;;;;5032919;28;20022;-68